Time;durP1;ratioP1;P1;durP2;ratioP2;P2;SDS_P1;SDS_P2;PMS_P1;PMS_P2;Temp;Humidity;BMP_temperature;BMP_pressure;BME280_temperature;BME280_humidity;BME280_pressure;Samples;Min_cycle;Max_cycle;Signal;HPM_P1;HPM_P2
2022/09/26 00:00:42;;;;;;;6.10;4.40;;;10.70;99.90;;;;;;5047033;28;20261;-63
2022/09/26 00:03:09;;;;;;;5.93;4.60;;;10.70;99.90;;;;;;5048144;28;20588;-63
2022/09/26 00:05:35;;;;;;;5.40;4.40;;;10.60;99.90;;;;;;5051874;28;20469;-63
2022/09/26 00:08:01;;;;;;;7.23;4.60;;;10.60;99.90;;;;;;5052407;28;20406;-62
2022/09/26 00:10:27;;;;;;;5.33;4.20;;;10.60;99.90;;;;;;5048402;28;20448;-63
2022/09/26 00:12:54;;;;;;;5.07;4.57;;;10.60;99.90;;;;;;5049553;28;20516;-62
2022/09/26 00:15:20;;;;;;;5.73;5.00;;;10.60;99.90;;;;;;5029674;28;20206;-63
2022/09/26 00:17:45;;;;;;;8.53;4.23;;;10.60;99.90;;;;;;5032374;28;20465;-63
2022/09/26 00:20:11;;;;;;;5.17;3.80;;;10.60;99.90;;;;;;5047747;28;20801;-63
2022/09/26 00:22:36;;;;;;;4.63;4.17;;;10.70;99.90;;;;;;5047287;28;20194;-62
2022/09/26 00:25:03;;;;;;;4.47;3.97;;;10.70;99.90;;;;;;5046489;28;20202;-63
2022/09/26 00:27:28;;;;;;;3.93;3.53;;;10.70;99.90;;;;;;5051596;28;20199;-62
2022/09/26 00:29:54;;;;;;;5.90;4.00;;;10.70;99.90;;;;;;5046523;28;20741;-62
2022/09/26 00:32:19;;;;;;;4.47;4.00;;;10.70;99.90;;;;;;5058286;28;20179;-63
2022/09/26 00:34:45;;;;;;;5.57;4.57;;;10.70;99.90;;;;;;5048622;28;20742;-63
2022/09/26 00:37:11;;;;;;;4.90;4.07;;;10.70;99.90;;;;;;5050552;28;20171;-63
2022/09/26 00:39:36;;;;;;;4.70;4.00;;;10.60;99.90;;;;;;5048278;28;20197;-62
2022/09/26 00:42:02;;;;;;;7.43;3.83;;;10.60;99.90;;;;;;5049984;28;20187;-63
2022/09/26 00:44:34;;;;;;;5.23;3.97;;;10.60;99.90;;;;;;5031796;28;20207;-63
2022/09/26 00:47:00;;;;;;;6.33;4.10;;;10.60;99.90;;;;;;5036467;28;21028;-63
2022/09/26 00:49:31;;;;;;;4.20;3.80;;;10.60;99.90;;;;;;5048619;28;20444;-63
2022/09/26 00:52:02;;;;;;;5.33;4.20;;;10.60;99.90;;;;;;5034465;28;20422;-62
2022/09/26 00:54:29;;;;;;;4.30;3.67;;;10.60;99.90;;;;;;5016006;28;20469;-62
2022/09/26 00:57:03;;;;;;;4.10;3.67;;;10.60;99.90;;;;;;5051343;28;20488;-62
2022/09/26 00:59:35;;;;;;;7.43;4.10;;;10.50;99.90;;;;;;5047529;28;20448;-62
2022/09/26 01:02:03;;;;;;;5.00;3.90;;;10.50;99.90;;;;;;5050690;28;20449;-62
2022/09/26 01:04:30;;;;;;;4.90;3.67;;;10.50;99.90;;;;;;5043168;28;20458;-62
2022/09/26 01:06:58;;;;;;;5.20;4.40;;;10.50;99.90;;;;;;5050875;28;20980;-62
2022/09/26 01:09:25;;;;;;;4.93;4.20;;;10.50;99.90;;;;;;5049827;28;20456;-63
2022/09/26 01:11:52;;;;;;;4.73;3.80;;;10.50;99.90;;;;;;5033893;28;20517;-63
2022/09/26 01:14:18;;;;;;;4.00;3.57;;;10.50;99.90;;;;;;5033046;28;20458;-62
2022/09/26 01:16:47;;;;;;;4.30;3.40;;;10.50;99.90;;;;;;5048565;28;20426;-62
2022/09/26 01:19:33;;;;;;;4.13;3.73;;;10.50;99.90;;;;;;5046703;28;20445;-63
2022/09/26 01:22:38;;;;;;;6.90;3.90;;;10.50;99.90;;;;;;5044630;28;20412;-63
2022/09/26 01:25:03;;;;;;;6.83;3.80;;;10.50;99.90;;;;;;5030633;28;20437;-62
2022/09/26 01:27:41;;;;;;;5.30;4.30;;;10.50;99.90;;;;;;5031085;28;20450;-63
2022/09/26 01:30:12;;;;;;;4.67;3.93;;;10.50;99.90;;;;;;5046145;28;20175;-63
2022/09/26 01:32:48;;;;;;;4.10;3.70;;;10.50;99.90;;;;;;5045350;28;20433;-62
2022/09/26 01:35:37;;;;;;;4.10;3.43;;;10.50;99.90;;;;;;5046307;28;20487;-63
2022/09/26 01:38:15;;;;;;;4.00;3.60;;;10.40;99.90;;;;;;5030474;28;20395;-62
2022/09/26 01:41:04;;;;;;;4.20;3.80;;;10.40;99.90;;;;;;5049049;28;20426;-63
2022/09/26 01:43:38;;;;;;;3.50;2.93;;;10.40;99.90;;;;;;5034167;28;20422;-63
2022/09/26 01:46:15;;;;;;;4.30;3.90;;;10.40;99.90;;;;;;5047114;28;21026;-63
2022/09/26 01:48:52;;;;;;;4.77;3.90;;;10.40;99.90;;;;;;5048582;28;20516;-62
2022/09/26 01:51:25;;;;;;;4.27;3.80;;;10.40;99.90;;;;;;5047941;28;20460;-64
2022/09/26 01:54:00;;;;;;;4.90;3.80;;;10.40;99.90;;;;;;5044225;28;20940;-63
2022/09/26 01:56:30;;;;;;;4.70;4.00;;;10.40;99.90;;;;;;5036065;28;20507;-64
2022/09/26 01:59:19;;;;;;;4.40;3.43;;;10.40;99.90;;;;;;5042922;28;20528;-63
2022/09/26 02:01:48;;;;;;;4.70;3.40;;;10.40;99.90;;;;;;5041769;28;20975;-62
2022/09/26 02:04:24;;;;;;;5.60;4.17;;;10.40;99.90;;;;;;5047429;28;20476;-64
2022/09/26 02:06:55;;;;;;;6.20;3.63;;;10.40;99.90;;;;;;5046326;28;20460;-63
2022/09/26 02:09:31;;;;;;;5.50;3.43;;;10.40;99.90;;;;;;5044918;28;20426;-63
2022/09/26 02:12:02;;;;;;;4.27;3.10;;;10.30;99.90;;;;;;5053712;28;20953;-62
2022/09/26 02:14:33;;;;;;;4.93;3.93;;;10.30;99.90;;;;;;5028146;28;20535;-63
2022/09/26 02:17:07;;;;;;;8.03;3.50;;;10.30;99.90;;;;;;5046823;28;20464;-62
2022/09/26 02:19:57;;;;;;;5.50;3.53;;;10.30;99.90;;;;;;5046742;28;20433;-63
2022/09/26 02:22:28;;;;;;;3.80;3.30;;;10.30;99.90;;;;;;5045998;28;20401;-63
2022/09/26 02:24:53;;;;;;;15.37;3.90;;;10.30;99.90;;;;;;5043490;28;20448;-63
2022/09/26 02:27:20;;;;;;;5.40;3.50;;;10.30;99.90;;;;;;5049582;28;21099;-63
2022/09/26 02:29:45;;;;;;;4.07;3.67;;;10.30;99.90;;;;;;5048890;28;20171;-62
2022/09/26 02:32:17;;;;;;;3.77;3.30;;;10.30;99.90;;;;;;5046025;28;20490;-63
2022/09/26 02:34:46;;;;;;;4.43;3.67;;;10.30;99.90;;;;;;5045049;28;20187;-64
2022/09/26 02:37:14;;;;;;;5.17;4.03;;;10.30;99.90;;;;;;5053280;28;20429;-63
2022/09/26 02:39:45;;;;;;;7.60;3.37;;;10.30;99.90;;;;;;5053713;28;20938;-62
2022/09/26 02:42:24;;;;;;;3.63;3.20;;;10.30;99.90;;;;;;5049887;28;20426;-62
2022/09/26 02:45:24;;;;;;;3.80;3.10;;;10.30;99.90;;;;;;5046701;28;20447;-63
2022/09/26 02:48:06;;;;;;;3.90;3.07;;;10.30;99.90;;;;;;5055397;28;20440;-62
2022/09/26 02:50:55;;;;;;;3.90;3.23;;;10.30;99.90;;;;;;5052772;28;20428;-63
2022/09/26 02:53:39;;;;;;;6.50;3.83;;;10.40;99.90;;;;;;4992372;28;20430;-62
2022/09/26 02:56:30;;;;;;;13.83;6.23;;;10.40;99.90;;;;;;5050491;28;20432;-63
2022/09/26 02:59:06;;;;;;;17.57;6.23;;;10.40;99.90;;;;;;5000212;28;20804;-64
2022/09/26 03:01:41;;;;;;;21.10;8.70;;;10.40;99.90;;;;;;5034615;28;20436;-62
2022/09/26 03:04:50;;;;;;;21.73;7.97;;;10.40;99.90;;;;;;5044752;28;20452;-62
2022/09/26 03:07:24;;;;;;;8.43;5.20;;;10.40;99.90;;;;;;5048107;28;20863;-63
2022/09/26 03:09:51;;;;;;;7.40;4.80;;;10.40;99.90;;;;;;5043496;28;20436;-62
2022/09/26 03:12:19;;;;;;;5.33;4.30;;;10.40;99.90;;;;;;5051631;28;20512;-62
2022/09/26 03:14:46;;;;;;;3.40;3.10;;;10.40;99.90;;;;;;5048884;28;20498;-62
2022/09/26 03:17:15;;;;;;;5.23;4.07;;;10.40;99.90;;;;;;5046570;28;20512;-62
2022/09/26 03:19:45;;;;;;;5.77;4.00;;;10.40;99.90;;;;;;5033807;28;20433;-62
2022/09/26 03:22:11;;;;;;;3.90;3.60;;;10.40;99.90;;;;;;5050472;28;20455;-64
2022/09/26 03:24:41;;;;;;;4.17;3.30;;;10.40;99.90;;;;;;5052311;28;21431;-64
2022/09/26 03:27:07;;;;;;;5.67;3.27;;;10.40;99.90;;;;;;5047469;28;20484;-62
2022/09/26 03:29:33;;;;;;;3.83;3.43;;;10.40;99.90;;;;;;5018633;28;20418;-63
2022/09/26 03:31:59;;;;;;;4.03;3.37;;;10.40;99.90;;;;;;5033027;28;20483;-63
2022/09/26 03:34:26;;;;;;;4.50;3.80;;;10.40;99.90;;;;;;5049645;28;20274;-63
2022/09/26 03:36:52;;;;;;;4.17;3.77;;;10.40;99.90;;;;;;5038416;28;20437;-62
2022/09/26 03:39:18;;;;;;;5.27;4.33;;;10.40;99.90;;;;;;5046691;28;20495;-63
2022/09/26 03:41:43;;;;;;;10.07;5.53;;;10.40;99.90;;;;;;5015083;28;20944;-62
2022/09/26 03:44:10;;;;;;;20.60;8.20;;;10.40;99.90;;;;;;5045034;28;20807;-63
2022/09/26 03:46:35;;;;;;;16.87;6.60;;;10.40;99.90;;;;;;5050926;28;20207;-63
2022/09/26 03:49:01;;;;;;;21.97;6.27;;;10.40;99.90;;;;;;5049109;28;20421;-64
2022/09/26 03:51:26;;;;;;;11.00;6.00;;;10.40;99.90;;;;;;5045745;28;20179;-63
2022/09/26 03:53:52;;;;;;;15.40;6.80;;;10.40;99.90;;;;;;5045444;28;20199;-62
2022/09/26 03:56:19;;;;;;;10.63;5.50;;;10.40;99.90;;;;;;5072520;28;20167;-63
2022/09/26 03:58:45;;;;;;;4.70;3.50;;;10.40;99.90;;;;;;5053114;28;20290;-63
2022/09/26 04:01:13;;;;;;;7.07;3.70;;;10.40;99.90;;;;;;5050270;28;20459;-62
2022/09/26 04:03:41;;;;;;;3.93;2.87;;;10.40;99.90;;;;;;5050307;28;20735;-62
2022/09/26 04:06:11;;;;;;;4.10;3.30;;;10.40;99.90;;;;;;5029917;28;20977;-62
2022/09/26 04:08:38;;;;;;;6.60;4.00;;;10.40;99.90;;;;;;5038510;28;20944;-63
2022/09/26 04:11:06;;;;;;;4.00;3.10;;;10.40;99.90;;;;;;5047627;28;20427;-63
2022/09/26 04:13:32;;;;;;;3.63;3.30;;;10.40;99.90;;;;;;5049355;28;20456;-63
2022/09/26 04:15:59;;;;;;;3.87;3.47;;;10.40;99.90;;;;;;5049603;28;20449;-63
2022/09/26 04:18:27;;;;;;;3.63;3.20;;;10.40;99.90;;;;;;5047114;28;20413;-62
2022/09/26 04:21:00;;;;;;;4.40;3.70;;;10.40;99.90;;;;;;5037687;28;20425;-63
2022/09/26 04:23:30;;;;;;;4.00;3.20;;;10.40;99.90;;;;;;5051944;28;20402;-63
2022/09/26 04:26:03;;;;;;;5.60;3.37;;;10.40;99.90;;;;;;5051038;28;20457;-63
2022/09/26 04:28:29;;;;;;;5.50;3.87;;;10.40;99.90;;;;;;5049258;28;20464;-63
2022/09/26 04:31:03;;;;;;;5.10;3.37;;;10.40;99.90;;;;;;5051817;28;20406;-63
2022/09/26 04:33:31;;;;;;;3.70;3.30;;;10.40;99.90;;;;;;5048913;28;20465;-63
2022/09/26 04:36:04;;;;;;;4.17;3.40;;;10.40;99.90;;;;;;5050877;28;20866;-63
2022/09/26 04:38:33;;;;;;;7.10;3.80;;;10.40;99.90;;;;;;5032714;28;20853;-63
2022/09/26 04:41:14;;;;;;;4.23;3.50;;;10.40;99.90;;;;;;5051923;28;20409;-63
2022/09/26 04:43:40;;;;;;;6.37;3.87;;;10.30;99.90;;;;;;5049617;28;20398;-63
2022/09/26 04:46:11;;;;;;;6.37;4.20;;;10.30;99.90;;;;;;5052231;28;20454;-63
2022/09/26 04:48:37;;;;;;;4.97;3.03;;;10.30;99.90;;;;;;5031257;28;20665;-64
2022/09/26 04:51:05;;;;;;;4.50;3.50;;;10.20;99.90;;;;;;5046416;28;21018;-64
2022/09/26 04:53:32;;;;;;;6.03;3.50;;;10.20;99.90;;;;;;5050002;28;20656;-64
2022/09/26 04:55:57;;;;;;;5.10;4.13;;;10.20;99.90;;;;;;5049622;28;20499;-63
2022/09/26 04:58:23;;;;;;;4.50;3.90;;;10.20;99.90;;;;;;5044643;28;20425;-64
2022/09/26 05:00:49;;;;;;;6.60;4.40;;;10.20;99.90;;;;;;5039496;28;20665;-63
2022/09/26 05:03:15;;;;;;;4.93;3.77;;;10.20;99.90;;;;;;5043684;28;20174;-63
2022/09/26 05:05:52;;;;;;;5.10;4.03;;;10.20;99.90;;;;;;5040998;28;20213;-63
2022/09/26 05:08:18;;;;;;;4.40;3.60;;;10.20;99.90;;;;;;5045184;28;20425;-63
2022/09/26 05:10:52;;;;;;;5.03;3.70;;;10.20;99.90;;;;;;5048290;28;20422;-64
2022/09/26 05:13:17;;;;;;;5.03;3.90;;;10.20;99.90;;;;;;5044543;28;20171;-64
2022/09/26 05:15:43;;;;;;;4.30;3.50;;;10.20;99.90;;;;;;5046261;28;20457;-63
2022/09/26 05:18:10;;;;;;;9.10;4.93;;;10.20;99.90;;;;;;5047778;28;20247;-63
2022/09/26 05:20:36;;;;;;;4.23;3.50;;;10.20;99.90;;;;;;5031957;28;20268;-63
2022/09/26 05:23:04;;;;;;;6.07;3.70;;;10.20;99.90;;;;;;5048696;28;20520;-64
2022/09/26 05:28:20;;;;;;;5.40;3.70;;;10.20;99.90;;;;;;5046890;28;20820;-63
2022/09/26 05:30:45;;;;;;;4.97;4.03;;;10.20;99.90;;;;;;5043949;28;20433;-63
2022/09/26 05:33:12;;;;;;;3.60;3.20;;;10.20;99.90;;;;;;5043416;28;20175;-63
2022/09/26 05:35:38;;;;;;;5.60;4.10;;;10.20;99.90;;;;;;5047023;28;20282;-63
2022/09/26 05:38:04;;;;;;;4.97;3.60;;;10.10;99.90;;;;;;5039914;28;20429;-63
2022/09/26 05:43:14;;;;;;;5.23;3.97;;;10.20;99.90;;;;;;5043850;28;20178;-64
2022/09/26 05:45:41;;;;;;;4.50;4.10;;;10.20;99.90;;;;;;5029884;28;20449;-63
2022/09/26 05:48:07;;;;;;;6.20;4.50;;;10.20;99.90;;;;;;5040880;28;20416;-64
2022/09/26 05:50:33;;;;;;;11.67;4.93;;;10.20;99.90;;;;;;5043933;28;20516;-63
2022/09/26 05:53:00;;;;;;;5.07;3.80;;;10.20;99.90;;;;;;5042432;28;20431;-63
2022/09/26 05:55:27;;;;;;;4.10;2.90;;;10.10;99.90;;;;;;5036016;28;20587;-63
2022/09/26 05:57:54;;;;;;;5.10;3.30;;;10.00;99.90;;;;;;5043533;28;20465;-63
2022/09/26 06:00:20;;;;;;;4.73;2.93;;;9.90;99.90;;;;;;5044248;28;20429;-63
2022/09/26 06:02:52;;;;;;;3.37;2.60;;;9.90;99.90;;;;;;5043101;28;20951;-64
2022/09/26 06:05:18;;;;;;;3.70;3.13;;;9.80;99.90;;;;;;5047436;28;20199;-64
2022/09/26 06:07:44;;;;;;;3.10;2.70;;;9.80;99.90;;;;;;5043794;28;20847;-64
2022/09/26 06:10:10;;;;;;;2.43;2.23;;;9.70;99.90;;;;;;5044845;28;20430;-63
2022/09/26 06:12:36;;;;;;;4.30;2.57;;;9.70;99.90;;;;;;5045846;28;21085;-63
2022/09/26 06:15:04;;;;;;;5.03;3.50;;;9.70;99.90;;;;;;5046725;28;20697;-63
2022/09/26 06:17:29;;;;;;;2.60;2.30;;;9.60;99.90;;;;;;5045163;28;20939;-63
2022/09/26 06:19:55;;;;;;;3.10;2.40;;;9.60;99.90;;;;;;5046592;28;20440;-63
2022/09/26 06:22:20;;;;;;;2.03;1.83;;;9.60;99.90;;;;;;5024857;28;20189;-63
2022/09/26 06:24:46;;;;;;;2.37;2.17;;;9.60;99.90;;;;;;5045511;28;20195;-63
2022/09/26 06:27:12;;;;;;;2.50;2.30;;;9.60;99.90;;;;;;5047628;28;20211;-63
2022/09/26 06:29:38;;;;;;;4.60;2.40;;;9.70;99.90;;;;;;5041217;28;20552;-63
2022/09/26 06:32:03;;;;;;;5.03;2.00;;;9.70;99.90;;;;;;5049144;28;20794;-61
2022/09/26 06:34:29;;;;;;;4.63;2.40;;;9.70;99.90;;;;;;5049806;28;20572;-64
2022/09/26 06:36:55;;;;;;;2.30;2.10;;;9.80;99.90;;;;;;5048176;28;20183;-63
2022/09/26 06:39:20;;;;;;;4.37;2.17;;;9.80;99.90;;;;;;5044986;28;20182;-63
2022/09/26 06:41:46;;;;;;;2.53;2.33;;;9.80;99.90;;;;;;5054328;28;20199;-62
2022/09/26 06:44:12;;;;;;;2.60;2.10;;;9.90;99.90;;;;;;5047875;28;20199;-64
2022/09/26 06:46:37;;;;;;;4.17;2.57;;;9.90;99.90;;;;;;5045543;28;20234;-63
2022/09/26 06:49:03;;;;;;;2.00;1.90;;;9.90;99.90;;;;;;5042720;28;20222;-63
2022/09/26 06:51:30;;;;;;;2.30;2.10;;;10.00;99.90;;;;;;5036842;28;20167;-63
2022/09/26 06:53:56;;;;;;;2.23;2.03;;;10.00;99.90;;;;;;5041453;28;20189;-64
2022/09/26 06:56:21;;;;;;;3.17;2.23;;;10.00;99.90;;;;;;5040416;28;20422;-63
2022/09/26 06:58:48;;;;;;;2.60;2.40;;;10.00;99.90;;;;;;5035362;28;20681;-64
2022/09/26 07:01:14;;;;;;;2.40;2.20;;;10.00;99.90;;;;;;5028804;28;20175;-64
2022/09/26 07:03:39;;;;;;;3.03;2.27;;;10.00;99.90;;;;;;5048462;28;20928;-62
2022/09/26 07:06:05;;;;;;;4.30;2.17;;;10.10;99.90;;;;;;5041565;28;20195;-63
2022/09/26 07:08:30;;;;;;;3.90;3.20;;;10.10;99.90;;;;;;5042502;28;20551;-64
2022/09/26 07:11:00;;;;;;;3.07;2.77;;;10.10;99.90;;;;;;5031477;28;20695;-63
2022/09/26 07:13:26;;;;;;;4.23;2.93;;;10.20;99.90;;;;;;5043659;28;20175;-63
2022/09/26 07:15:55;;;;;;;3.00;2.70;;;10.30;99.90;;;;;;5046060;28;20457;-63
2022/09/26 07:18:20;;;;;;;2.70;2.40;;;10.30;99.90;;;;;;5032098;28;20439;-63
2022/09/26 07:20:46;;;;;;;2.40;2.20;;;10.30;99.90;;;;;;5029038;28;20414;-63
2022/09/26 07:23:14;;;;;;;2.23;2.03;;;10.40;99.90;;;;;;5040362;28;20249;-63
2022/09/26 07:25:43;;;;;;;2.83;2.23;;;10.40;99.90;;;;;;5048118;28;21042;-63
2022/09/26 07:28:09;;;;;;;3.33;2.70;;;10.40;99.90;;;;;;5051793;28;20430;-63
2022/09/26 07:30:35;;;;;;;2.10;1.90;;;10.40;99.90;;;;;;5068906;28;20412;-63
2022/09/26 07:33:02;;;;;;;2.20;2.00;;;10.40;99.90;;;;;;5032568;28;20420;-63
2022/09/26 07:35:35;;;;;;;5.03;2.33;;;10.50;99.90;;;;;;5051767;28;20191;-63
2022/09/26 07:38:01;;;;;;;2.00;1.80;;;10.50;99.90;;;;;;5053179;28;20499;-63
2022/09/26 07:40:27;;;;;;;1.77;1.67;;;10.60;99.90;;;;;;5052830;28;20800;-63
2022/09/26 07:42:57;;;;;;;1.80;1.70;;;10.60;99.90;;;;;;5039944;28;20178;-64
2022/09/26 07:50:57;;;;;;;3.17;1.80;;;10.60;99.90;;;;;;5053225;28;20516;-63
2022/09/26 07:53:25;;;;;;;2.30;2.00;;;10.70;99.90;;;;;;5059207;28;20558;-64
2022/09/26 07:56:06;;;;;;;2.23;2.03;;;10.70;99.90;;;;;;5062568;28;20453;-64
2022/09/26 07:58:37;;;;;;;1.40;1.30;;;10.70;99.90;;;;;;5047268;28;20442;-63
2022/09/26 08:01:04;;;;;;;1.60;1.50;;;10.80;99.90;;;;;;5025006;28;20434;-64
2022/09/26 08:03:29;;;;;;;1.70;1.60;;;10.80;99.90;;;;;;5050411;28;20563;-63
2022/09/26 08:05:58;;;;;;;1.53;1.43;;;10.90;99.90;;;;;;5051177;28;21141;-63
2022/09/26 08:08:24;;;;;;;1.30;1.20;;;10.90;99.90;;;;;;5049474;28;20644;-63
2022/09/26 08:10:50;;;;;;;1.53;1.43;;;11.00;99.90;;;;;;5040883;28;20430;-63
2022/09/26 08:13:16;;;;;;;1.70;1.57;;;11.00;99.90;;;;;;5047513;28;20432;-63
2022/09/26 08:15:41;;;;;;;2.97;1.50;;;11.10;99.90;;;;;;5051538;28;20681;-63
2022/09/26 08:18:07;;;;;;;1.60;1.50;;;11.10;99.90;;;;;;5028950;28;20253;-63
2022/09/26 08:20:32;;;;;;;2.33;1.50;;;11.20;99.90;;;;;;5051316;28;20171;-63
2022/09/26 08:22:59;;;;;;;3.13;2.50;;;11.10;99.90;;;;;;5050331;28;20262;-64
2022/09/26 08:25:24;;;;;;;1.50;1.33;;;11.10;99.90;;;;;;5054055;28;20199;-63
2022/09/26 08:27:51;;;;;;;2.90;1.63;;;11.10;99.90;;;;;;5038133;28;20477;-63
2022/09/26 08:30:18;;;;;;;1.80;1.70;;;11.10;99.90;;;;;;5049512;28;20225;-63
2022/09/26 08:32:52;;;;;;;2.17;1.87;;;11.10;99.90;;;;;;5032441;28;20407;-63
2022/09/26 08:35:17;;;;;;;1.87;1.77;;;11.20;99.90;;;;;;5036679;28;20486;-63
2022/09/26 08:37:43;;;;;;;1.97;1.83;;;11.40;99.90;;;;;;5048801;28;20814;-63
2022/09/26 08:40:09;;;;;;;4.20;2.07;;;11.40;99.90;;;;;;5051806;28;20171;-63
2022/09/26 08:42:55;;;;;;;3.83;1.60;;;11.50;99.90;;;;;;5040394;28;20222;-63
2022/09/26 08:48:50;;;;;;;2.70;2.23;;;11.80;99.90;;;;;;5004895;28;20494;-63
2022/09/26 08:51:25;;;;;;;6.20;2.57;;;11.80;99.90;;;;;;5044918;28;20623;-63
2022/09/26 08:54:20;;;;;;;3.43;2.70;;;11.70;99.90;;;;;;5047291;28;20805;-65
2022/09/26 08:56:53;;;;;;;3.23;2.77;;;11.70;99.90;;;;;;5049351;28;20457;-63
2022/09/26 08:59:28;;;;;;;4.37;2.33;;;11.60;99.90;;;;;;5045282;28;20430;-63
2022/09/26 09:01:58;;;;;;;5.27;2.70;;;11.50;99.90;;;;;;5042177;28;20441;-63
2022/09/26 09:05:01;;;;;;;2.57;2.37;;;11.50;99.90;;;;;;5052029;28;20425;-63
2022/09/26 09:07:27;;;;;;;3.57;2.23;;;11.50;99.90;;;;;;5033421;28;20477;-63
2022/09/26 09:10:05;;;;;;;2.87;2.20;;;11.50;99.90;;;;;;5052025;28;20409;-63
2022/09/26 09:12:31;;;;;;;2.10;1.90;;;11.50;99.90;;;;;;5050311;28;20186;-62
2022/09/26 09:15:15;;;;;;;3.23;2.47;;;11.60;99.90;;;;;;5036073;28;20453;-64
2022/09/26 09:17:57;;;;;;;2.30;2.10;;;11.60;99.90;;;;;;5039840;28;20182;-63
2022/09/26 09:20:41;;;;;;;2.33;2.13;;;11.70;99.90;;;;;;5031290;28;20398;-63
2022/09/26 09:23:22;;;;;;;2.30;2.10;;;12.10;99.90;;;;;;5042018;28;20426;-63
2022/09/26 09:25:47;;;;;;;3.10;1.70;;;12.20;99.90;;;;;;5026636;28;20918;-63
2022/09/26 09:28:32;;;;;;;2.27;1.90;;;12.20;99.60;;;;;;5046439;28;20434;-63
2022/09/26 09:31:05;;;;;;;5.30;1.90;;;12.30;99.80;;;;;;5049619;28;20638;-63
2022/09/26 09:33:37;;;;;;;7.40;2.23;;;12.50;99.90;;;;;;5051527;28;20445;-64
2022/09/26 09:36:10;;;;;;;2.87;1.77;;;12.80;99.30;;;;;;5038575;28;20488;-64
2022/09/26 09:38:38;;;;;;;1.90;1.80;;;13.00;96.40;;;;;;5030495;28;20442;-63
2022/09/26 09:41:42;;;;;;;2.63;1.73;;;13.30;94.80;;;;;;5049927;28;20413;-63
2022/09/26 09:44:37;;;;;;;1.80;1.50;;;13.50;97.90;;;;;;4999899;28;20461;-63
2022/09/26 09:47:13;;;;;;;1.80;1.57;;;13.70;95.10;;;;;;5044359;28;20461;-63
2022/09/26 09:49:39;;;;;;;7.03;1.70;;;13.90;89.60;;;;;;5058309;28;21170;-63
2022/09/26 09:52:37;;;;;;;4.93;1.83;;;13.90;78.50;;;;;;5047097;28;20545;-64
2022/09/26 09:55:25;;;;;;;2.10;1.73;;;14.00;83.60;;;;;;5045381;28;20476;-64
2022/09/26 09:58:02;;;;;;;2.03;1.50;;;14.10;80.40;;;;;;5030857;28;20403;-63
2022/09/26 10:00:28;;;;;;;5.67;2.07;;;14.20;86.50;;;;;;5046426;28;20951;-63
2022/09/26 10:03:24;;;;;;;1.70;1.60;;;14.40;71.00;;;;;;5047710;28;20463;-64
2022/09/26 10:05:59;;;;;;;4.00;1.73;;;14.40;72.00;;;;;;5045664;28;20285;-64
2022/09/26 10:08:41;;;;;;;3.00;1.70;;;14.60;78.20;;;;;;5042473;28;20524;-63
2022/09/26 10:11:27;;;;;;;1.63;1.53;;;14.70;74.60;;;;;;5046585;28;20479;-63
2022/09/26 10:14:00;;;;;;;4.07;2.23;;;14.80;70.50;;;;;;5045516;28;20412;-63
2022/09/26 10:16:25;;;;;;;4.60;2.00;;;14.70;60.80;;;;;;5027313;28;20799;-64
2022/09/26 10:19:07;;;;;;;2.23;1.80;;;14.50;62.00;;;;;;5030408;28;20432;-63
2022/09/26 10:21:46;;;;;;;2.97;2.00;;;14.40;63.10;;;;;;5045695;28;20186;-64
2022/09/26 10:24:26;;;;;;;3.93;1.60;;;14.50;62.50;;;;;;5045985;28;20437;-62
2022/09/26 10:26:53;;;;;;;4.23;2.00;;;14.70;61.80;;;;;;5048978;28;20535;-63
2022/09/26 10:29:23;;;;;;;2.20;1.73;;;15.00;61.60;;;;;;5040701;28;20452;-64
2022/09/26 10:32:00;;;;;;;3.37;1.90;;;15.10;58.90;;;;;;5048670;28;20440;-63
2022/09/26 10:34:31;;;;;;;2.53;1.87;;;15.20;59.60;;;;;;5053812;28;20441;-63
2022/09/26 10:37:20;;;;;;;1.83;1.73;;;15.40;60.20;;;;;;5040657;28;20449;-64
2022/09/26 10:42:40;;;;;;;1.83;1.73;;;15.90;55.50;;;;;;5049837;28;20964;-63
2022/09/26 10:45:19;;;;;;;2.67;1.53;;;16.00;52.70;;;;;;5037713;28;20459;-64
2022/09/26 10:47:47;;;;;;;2.20;1.73;;;15.90;51.60;;;;;;5043836;28;20493;-64
2022/09/26 10:50:26;;;;;;;2.30;1.83;;;15.90;53.50;;;;;;5046635;28;20549;-66
2022/09/26 10:53:07;;;;;;;2.50;1.80;;;16.00;54.20;;;;;;5046086;28;20504;-63
2022/09/26 10:55:41;;;;;;;2.50;1.70;;;16.20;53.20;;;;;;5049126;28;20464;-63
2022/09/26 10:58:13;;;;;;;2.53;2.33;;;16.40;54.10;;;;;;5053835;28;20972;-63
2022/09/26 11:00:50;;;;;;;1.70;1.60;;;16.70;53.40;;;;;;5031772;28;20438;-63
2022/09/26 11:03:20;;;;;;;3.40;1.80;;;16.70;53.00;;;;;;5047432;28;20434;-63
2022/09/26 11:05:56;;;;;;;3.50;1.60;;;16.40;51.00;;;;;;5041352;28;21045;-63
2022/09/26 11:08:34;;;;;;;2.27;2.00;;;16.00;50.90;;;;;;5049147;28;20429;-64
2022/09/26 11:11:03;;;;;;;3.80;2.37;;;15.60;51.50;;;;;;5050104;28;21010;-63
2022/09/26 11:13:38;;;;;;;2.27;1.97;;;15.30;51.90;;;;;;5034600;28;20429;-65
2022/09/26 11:16:12;;;;;;;2.70;2.10;;;15.10;54.00;;;;;;5050335;28;20456;-64
2022/09/26 11:18:41;;;;;;;2.40;2.20;;;15.10;57.30;;;;;;5048433;28;20437;-64
2022/09/26 11:21:37;;;;;;;9.20;2.10;;;15.40;57.50;;;;;;5051002;28;20442;-63
2022/09/26 11:24:24;;;;;;;2.50;2.10;;;15.80;57.10;;;;;;4991164;28;20449;-63
2022/09/26 11:27:18;;;;;;;3.60;2.43;;;16.30;55.80;;;;;;5046429;28;20461;-63
2022/09/26 11:30:08;;;;;;;7.63;2.63;;;16.50;51.60;;;;;;5034949;28;20437;-63
2022/09/26 11:32:39;;;;;;;5.10;2.10;;;16.80;53.30;;;;;;5053055;28;20417;-64
2022/09/26 11:35:12;;;;;;;2.37;2.17;;;17.20;52.70;;;;;;5052230;28;20454;-63
2022/09/26 11:38:08;;;;;;;3.00;2.17;;;17.40;51.90;;;;;;5051816;28;20429;-63
2022/09/26 11:41:01;;;;;;;4.17;2.30;;;17.20;49.90;;;;;;5050237;28;20459;-63
2022/09/26 11:43:50;;;;;;;3.10;2.40;;;17.10;50.90;;;;;;5050055;28;20421;-63
2022/09/26 11:46:31;;;;;;;3.73;2.50;;;16.90;50.80;;;;;;5031070;28;21115;-63
2022/09/26 11:49:18;;;;;;;2.00;1.80;;;17.00;51.90;;;;;;5055959;28;20417;-63
2022/09/26 11:51:59;;;;;;;2.67;2.03;;;17.40;50.00;;;;;;5037744;28;20501;-65
2022/09/26 11:55:03;;;;;;;1.67;1.57;;;17.80;47.90;;;;;;5042271;28;20479;-63
2022/09/26 11:57:48;;;;;;;5.03;2.50;;;18.00;47.40;;;;;;5051799;28;21112;-63
2022/09/26 12:00:23;;;;;;;10.40;2.60;;;17.90;48.60;;;;;;5049525;28;20452;-64
2022/09/26 12:03:07;;;;;;;2.60;2.40;;;17.50;49.10;;;;;;5042279;28;20420;-64
2022/09/26 12:05:48;;;;;;;3.50;2.63;;;17.10;50.10;;;;;;5036348;28;20453;-63
2022/09/26 12:08:22;;;;;;;6.33;2.50;;;16.70;50.80;;;;;;5049998;28;20865;-63
2022/09/26 12:11:24;;;;;;;4.37;2.90;;;16.40;51.80;;;;;;5049115;28;20517;-63
2022/09/26 12:14:34;;;;;;;3.20;2.80;;;16.30;53.20;;;;;;5040746;28;20432;-62
2022/09/26 12:17:03;;;;;;;3.47;2.53;;;16.70;53.00;;;;;;4990581;28;20415;-63
2022/09/26 12:20:00;;;;;;;3.37;2.50;;;16.90;52.30;;;;;;5005611;28;21059;-63
2022/09/26 12:22:43;;;;;;;3.27;2.00;;;16.60;51.50;;;;;;5034398;28;20519;-63
2022/09/26 12:25:28;;;;;;;2.90;2.10;;;16.30;50.80;;;;;;5047145;28;20457;-63
2022/09/26 12:28:16;;;;;;;2.20;2.00;;;15.90;50.30;;;;;;5047096;28;20515;-63
2022/09/26 12:30:48;;;;;;;3.17;1.80;;;15.50;50.40;;;;;;5037723;28;20422;-63
2022/09/26 12:33:32;;;;;;;1.90;1.80;;;15.20;51.00;;;;;;5030739;28;20471;-62
2022/09/26 12:36:10;;;;;;;2.40;2.20;;;15.00;52.30;;;;;;5044623;28;20464;-62
2022/09/26 12:39:03;;;;;;;2.63;1.80;;;15.00;53.50;;;;;;5048890;28;20524;-63
2022/09/26 12:41:41;;;;;;;5.17;2.10;;;15.30;53.80;;;;;;5049195;28;20401;-62
2022/09/26 12:44:21;;;;;;;3.37;1.90;;;16.00;53.10;;;;;;5049382;28;20963;-63
2022/09/26 12:46:52;;;;;;;4.30;1.97;;;16.60;52.40;;;;;;5042356;28;20461;-63
2022/09/26 12:49:27;;;;;;;1.93;1.23;;;17.20;50.30;;;;;;5052763;28;20421;-63
2022/09/26 12:52:05;;;;;;;1.97;1.50;;;17.50;49.30;;;;;;5052503;28;20493;-63
2022/09/26 12:54:51;;;;;;;2.13;1.80;;;17.60;48.20;;;;;;5027839;28;20470;-62
2022/09/26 12:57:56;;;;;;;1.60;1.50;;;17.90;48.10;;;;;;5052387;28;20471;-63
2022/09/26 13:00:22;;;;;;;1.50;1.30;;;18.20;47.60;;;;;;5050705;28;20449;-63
2022/09/26 13:02:59;;;;;;;1.33;1.23;;;18.40;46.30;;;;;;5037562;28;20429;-62
2022/09/26 13:05:29;;;;;;;1.77;1.40;;;18.70;45.70;;;;;;5050171;28;20457;-63
2022/09/26 13:08:14;;;;;;;1.43;1.33;;;18.40;44.50;;;;;;5041308;28;20548;-62
2022/09/26 13:11:14;;;;;;;1.97;1.43;;;17.90;46.00;;;;;;5034141;28;20452;-63
2022/09/26 13:14:07;;;;;;;5.67;1.80;;;17.30;45.80;;;;;;5039831;28;20437;-62
2022/09/26 13:16:42;;;;;;;4.33;1.33;;;16.80;46.80;;;;;;5051676;28;20417;-63
2022/09/26 13:19:19;;;;;;;4.80;1.37;;;16.40;47.50;;;;;;5050091;28;20429;-63
2022/09/26 13:21:57;;;;;;;6.27;1.60;;;16.10;48.10;;;;;;5044643;28;20844;-62
2022/09/26 13:24:29;;;;;;;1.60;1.30;;;15.90;48.60;;;;;;5047598;28;20460;-63
2022/09/26 13:27:35;;;;;;;1.90;1.70;;;15.70;50.00;;;;;;5049307;28;20541;-62
2022/09/26 13:30:11;;;;;;;2.67;2.10;;;15.60;50.20;;;;;;5017323;28;20521;-63
2022/09/26 13:32:47;;;;;;;1.50;1.37;;;15.50;50.40;;;;;;5048292;28;20455;-63
2022/09/26 13:35:19;;;;;;;2.00;1.80;;;15.40;50.70;;;;;;5048541;28;20450;-62